Latest Coastal Weather Observations for Coffs Harbour Airport

IDN60701

Issued at 9:11 am EDT Thursday 24 October 2019 (issued every 10 minutes, with the page automatically refreshed every 10 minutes)

About coastal observations | Map of coastal stations | Coastal observations for NSW | Marine services | Other Formats
Station Details ID: 059151 Name: COFFS HARBOUR AIRPORT Lat: -30.32 Lon: 153.12 Height: 3.5 m
Data from the previous 72 hours. | See also: Recent months at Coffs Harbour Airport
Date/Time
EDT
Wind Sea
Height
m
Swell Vis
km
Cloud Weather Temp
°C
Press
hPa
Rain since
9am
mm
Dir  Spd
kts
Gust
kts
Height
m
Period
s
Dir
24/09:00am N 5 7 - - - - 5 Clear - 22.3 1020.0 0.0
24/08:30am NW 1 4 - - - - 4 - - 20.2 1020.2 0.0
24/08:00am N 5 6 - - - - 4 - - 18.8 1020.1 0.0
24/07:44am CALM 0 4 - - - - 6 - - 17.6 1020.0 0.0
24/07:30am NNW 2 4 - - - - 7 - - 16.5 1019.8 0.0
24/07:00am N 3 4 - - - - 7 - - 15.1 1019.7 0.0
24/06:30am NNE 4 6 - - - - 7 - - 14.4 1019.3 0.0
24/06:22am NNE 4 5 - - - - 7 - - 14.6 1019.3 0.0
24/06:04am NW 1 5 - - - - 6 - - 13.8 1019.1 0.0
24/06:00am NW 3 6 - - - - 7 - - 14.4 1019.1 0.0
24/05:30am NNW 7 9 - - - - 7 - - 17.4 1018.8 0.0
24/05:00am E 3 5 - - - - 8 - - 16.2 1018.8 0.0
24/04:30am NW 10 12 - - - - 10 - - 17.1 1018.8 0.0
24/04:00am NNW 4 7 - - - - 10 - - 15.8 1019.1 0.0
24/03:30am NNW 6 7 - - - - 10 - - 15.4 1019.3 0.0
24/03:00am NNE 6 7 - - - - 10 - - 17.1 1019.7 0.0
24/02:30am N 9 13 - - - - 10 - - 17.7 1020.2 0.0
24/02:00am NNW 6 9 - - - - 10 - - 17.7 1020.5 0.0
24/01:30am NNW 7 11 - - - - 10 - - 18.1 1021.0 0.0
24/01:00am N 9 13 - - - - 10 - - 18.6 1021.6 0.0
24/12:30am N 12 17 - - - - 10 - - 18.7 1022.0 0.0
24/12:00am N 10 14 - - - - 10 - - 18.4 1022.3 0.0
 
Date/Time
EDT
Wind Sea
Height
m
Swell Vis
km
Cloud Weather Temp
°C
Press
hPa
Rain since
9am
mm
Dir  Spd
kts
Gust
kts
Height
m
Period
s
Dir
23/11:30pm N 9 11 - - - - 10 - - 18.9 1022.6 0.0
23/11:00pm N 10 12 - - - - 10 - - 19.0 1022.8 0.0
23/10:30pm N 11 14 - - - - 10 - - 19.3 1022.9 0.0
23/10:00pm N 9 13 - - - - 10 - - 19.4 1023.0 0.0
23/09:30pm N 8 12 - - - - 10 - - 19.2 1022.9 0.0
23/09:00pm N 11 16 - - - - 10 - - 19.8 1022.6 0.0
23/08:30pm N 13 18 - - - - 10 - - 19.9 1022.3 0.0
23/08:00pm NNE 15 20 - - - - 10 - - 19.9 1021.8 0.0
23/07:30pm NNE 13 16 - - - - 10 - - 20.2 1021.6 0.0
23/07:00pm NNE 14 18 - - - - 10 - - 20.4 1021.5 0.0
23/06:30pm NNE 14 19 - - - - 10 - - 20.9 1021.1 0.0
23/06:00pm NNE 15 21 - - - - 10 Mostly clear - 21.2 1020.9 0.0
23/05:30pm NNE 16 21 - - - - 10 - - 21.4 1020.7 0.0
23/05:00pm NNE 18 22 - - - - 10 - - 22.2 1020.7 0.0
23/04:30pm NNE 17 23 - - - - 10 - - 22.4 1020.8 0.0
23/04:00pm NE 15 20 - - - - 10 - - 22.3 1021.0 0.0
23/03:30pm NE 18 23 - - - - 10 - - 23.0 1021.1 0.0
23/03:00pm NE 17 23 - - - - 10 - - 23.2 1021.2 0.0
23/02:30pm NE 17 23 - - - - 10 - - 23.5 1021.5 0.0
23/02:00pm NE 19 23 - - - - 10 - - 23.6 1021.9 0.0
23/01:30pm NE 18 22 - - - - 10 - - 23.1 1022.4 0.0
23/01:00pm NE 17 22 - - - - 10 - - 23.1 1022.8 0.0
23/12:30pm NE 14 19 - - - - 10 - - 23.2 1023.2 0.0
23/12:00pm ENE 15 18 - - - - 10 - - 23.2 1023.6 0.0
23/11:30am ENE 10 17 - - - - 10 - - 22.8 1024.1 0.0
23/11:00am ESE 7 10 - - - - 8 - - 21.3 1024.6 0.0
23/10:53am ESE 7 9 - - - - 7 - - 21.3 1024.7 0.0
23/10:30am ESE 7 9 - - - - 6 - - 21.5 1025.0 0.0
23/10:20am ESE 7 8 - - - - 6 - - 21.0 1025.0 0.0
23/10:00am SE 6 8 - - - - 8 - - 20.4 1025.0 0.0
23/09:30am SE 6 7 - - - - 7 - - 20.0 1025.1 0.0
23/09:14am SSE 4 6 - - - - 8 - - 20.1 1025.1 0.0
23/09:00am SW 2 5 - - - - 6 - - 19.4 1025.1 0.0
23/08:30am CALM 0 0 - - - - 10 - - 17.4 1025.0 0.0
23/08:00am SW 3 5 - - - - 8 - - 16.0 1024.8 0.0
23/07:30am SSW 3 4 - - - - 10 - - 14.9 1024.6 0.0
23/07:15am SW 4 5 - - - - 9 - - 14.2 1024.5 0.0
23/07:00am SW 5 6 - - - - 5 - - 13.6 1024.2 0.0
23/06:30am CALM 0 0 - - - - 5 - - 12.3 1023.8 0.0
23/06:00am WNW 4 6 - - - - 6 Cloudy - 13.0 1023.3 0.0
23/05:42am NW 2 5 - - - - 6 Partly cloudy - 14.0 1023.2 0.0
23/05:30am WNW 6 7 - - - - 9 Partly cloudy - 12.8 1023.1 0.0
23/05:00am WNW 7 8 - - - - 10 - - 13.9 1023.1 0.0
23/04:30am NW 9 11 - - - - 10 Partly cloudy - 15.0 1022.8 0.0
23/04:00am WNW 7 8 - - - - 10 - - 14.6 1022.7 0.0
23/03:30am NW 6 9 - - - - 10 - - 15.0 1022.8 0.0
23/03:00am NW 7 8 - - - - 10 - - 14.6 1023.1 0.0
23/02:30am NW 6 7 - - - - 10 - - 15.0 1023.4 0.0
23/02:00am NW 6 7 - - - - 10 - - 15.1 1023.6 0.0
23/01:30am NW 7 8 - - - - 10 - - 15.2 1024.0 0.0
23/01:00am WNW 8 10 - - - - 10 - - 15.8 1024.6 0.0
23/12:30am NW 7 8 - - - - 10 - - 15.3 1024.9 0.0
23/12:00am NW 7 7 - - - - 10 - - 14.7 1025.2 0.0
 
Date/Time
EDT
Wind Sea
Height
m
Swell Vis
km
Cloud Weather Temp
°C
Press
hPa
Rain since
9am
mm
Dir  Spd
kts
Gust
kts
Height
m
Period
s
Dir
22/11:30pm WNW 6 6 - - - - 10 - - 14.6 1025.3 0.0
22/11:00pm NW 4 5 - - - - 10 - - 14.0 1025.4 0.0
22/10:30pm NW 4 5 - - - - 10 - - 14.3 1025.4 0.0
22/10:00pm NW 3 4 - - - - 10 - - 14.9 1025.4 0.0
22/09:30pm NW 3 5 - - - - 10 - - 15.1 1025.2 0.0
22/09:00pm WNW 4 5 - - - - 10 - - 15.3 1025.2 0.0
22/08:30pm NW 4 4 - - - - 10 Partly cloudy - 15.8 1025.0 0.0
22/08:00pm CALM 0 0 - - - - 10 Partly cloudy - 15.9 1024.9 0.0
22/07:30pm NE 4 5 - - - - 10 - - 17.5 1024.6 0.0
22/07:00pm ENE 4 5 - - - - 10 - - 19.4 1024.4 0.0
22/06:30pm ENE 5 7 - - - - 10 - - 20.5 1024.1 0.0
22/06:00pm ENE 7 8 - - - - 10 - - 20.9 1023.6 0.0
22/05:30pm ENE 7 9 - - - - 10 - - 21.4 1023.4 0.0
22/05:00pm ENE 8 10 - - - - 10 - - 21.6 1023.1 0.0
22/04:30pm E 7 10 - - - - 10 - - 21.5 1023.1 0.0
22/04:00pm ESE 9 11 - - - - 10 - - 21.5 1023.1 0.0
22/03:30pm E 10 12 - - - - 10 - - 21.8 1023.2 0.0
22/03:00pm E 10 14 - - - - 10 - - 22.1 1023.5 0.0
22/02:30pm ESE 10 14 - - - - 10 - - 22.1 1023.8 0.0
22/02:00pm ESE 9 13 - - - - 10 - - 21.9 1024.2 0.0
22/01:30pm ESE 9 12 - - - - 10 - - 22.1 1024.5 0.0
22/01:00pm ESE 9 11 - - - - 10 - - 22.0 1024.6 0.0
22/12:30pm ESE 9 14 - - - - 10 - - 21.7 1024.9 0.0
22/12:00pm ESE 8 10 - - - - 10 - - 21.6 1025.2 0.0
22/11:30am SE 9 12 - - - - 10 - - 21.7 1025.6 0.0
22/11:00am SE 8 10 - - - - 10 - - 21.0 1025.9 0.0
22/10:30am SE 8 10 - - - - 10 - - 21.0 1026.1 0.0
22/10:00am SSE 8 10 - - - - 10 - - 20.7 1026.2 0.0
22/09:30am SSE 8 10 - - - - 10 - - 21.0 1026.1 0.0
22/09:00am SW 6 8 - - - - 10 - - 19.4 1026.1 0.0
22/08:30am SW 5 7 - - - - 10 - - 18.1 1025.9 0.0
22/08:00am SSW 5 5 - - - - 10 - - 16.4 1025.7 0.0
22/07:30am W 4 5 - - - - 10 - - 14.3 1025.6 0.0
22/07:00am W 4 5 - - - - 10 - - 12.8 1025.4 0.0
22/06:30am WNW 4 5 - - - - 10 - - 10.7 1025.2 0.0
22/06:00am WNW 4 5 - - - - 10 - - 11.1 1024.9 0.0
22/05:30am WNW 4 5 - - - - 10 - - 10.5 1024.8 0.0
22/05:00am W 4 4 - - - - 10 - - 10.6 1024.6 0.0
22/04:30am W 4 5 - - - - 10 - - 10.7 1024.5 0.0
22/04:00am WNW 4 4 - - - - 10 - - 11.0 1024.5 0.0
22/03:30am WNW 4 5 - - - - 10 - - 10.9 1024.7 0.0
22/03:00am WNW 3 4 - - - - 10 - - 11.2 1024.8 0.0
22/02:30am WNW 3 4 - - - - 10 - - 11.1 1025.0 0.0
22/02:00am WNW 4 4 - - - - 10 - - 11.7 1025.1 0.0
22/01:30am WNW 3 4 - - - - 10 - - 11.5 1025.6 0.0
22/01:00am WNW 4 4 - - - - 10 - - 11.7 1025.9 0.0
22/12:30am WNW 4 5 - - - - 10 - - 12.2 1026.2 0.0
22/12:00am CALM 0 0 - - - - 10 - - 12.4 1026.4 0.0
 
Date/Time
EDT
Wind Sea
Height
m
Swell Vis
km
Cloud Weather Temp
°C
Press
hPa
Rain since
9am
mm
Dir  Spd
kts
Gust
kts
Height
m
Period
s
Dir
21/11:30pm CALM 0 0 - - - - 10 - - 12.5 1026.4 0.0
21/11:00pm CALM 0 0 - - - - 10 - - 13.0 1026.5 0.0
21/10:30pm NW 4 4 - - - - 10 - - 13.4 1026.6 0.0
21/10:00pm WNW 2 5 - - - - 10 - - 14.2 1026.6 0.0
21/09:30pm WNW 2 4 - - - - 10 - - 14.1 1026.7 0.0
21/09:00pm WNW 4 6 - - - - 10 - - 14.4 1026.5 0.0
21/08:30pm WNW 6 6 - - - - 10 - - 14.6 1026.4 0.0
21/08:00pm ESE 5 7 - - - - 10 - - 15.7 1026.1 0.0
21/07:30pm ESE 5 7 - - - - 10 - - 17.6 1025.8 0.0
21/07:00pm ESE 7 8 - - - - 10 - - 18.4 1025.6 0.0
21/06:30pm ESE 7 9 - - - - 10 - - 19.3 1025.2 0.0
21/06:00pm ESE 8 10 - - - - 10 - - 20.1 1025.1 0.0
21/05:30pm ESE 9 13 - - - - 10 - - 20.7 1024.8 0.0
21/05:00pm SE 10 14 - - - - 10 - - 21.0 1024.7 0.0
21/04:30pm ESE 10 14 - - - - 10 - - 21.2 1024.7 0.0
21/04:00pm SE 9 13 - - - - 10 - - 21.3 1024.6 0.0
21/03:30pm SE 10 15 - - - - 10 - - 21.7 1024.8 0.0
21/03:00pm SE 9 12 - - - - 10 - - 21.2 1025.1 0.0
21/02:30pm SSE 9 11 - - - - 10 - - 21.4 1025.3 0.0
21/02:00pm SE 8 12 - - - - 10 - - 20.9 1025.5 0.0
21/01:30pm SE 9 12 - - - - 10 - - 20.9 1025.7 0.0
21/01:00pm SE 9 12 - - - - 10 - - 21.4 1025.9 0.0
21/12:30pm SSE 9 11 - - - - 10 - - 20.8 1026.3 0.0
21/12:00pm SSE 9 11 - - - - 10 - - 21.1 1026.5 0.0
21/11:30am SSE 9 11 - - - - 10 - - 21.0 1026.8 0.0
21/11:00am SSE 8 10 - - - - 10 - - 20.8 1027.0 0.0
21/10:30am S 8 10 - - - - 10 - - 20.4 1027.2 0.0
21/10:00am SSE 6 8 - - - - 10 - - 21.0 1027.1 0.0
21/09:30am S 6 7 - - - - 10 - - 20.2 1027.0 0.0

Other formats

Comma delimited format used in spreadsheet applications
http://www.bom.gov.au/fwo/IDN60701/IDN60701.95729.axf

JavaScript Object Notation format (JSON) in row-major order
http://www.bom.gov.au/fwo/IDN60701/IDN60701.95729.json

Data quality

Most of these data are generated automatically and are frequently updated. Quality checks on data are not normally performed. It is possible for incorrect values to appear. Refer to information at About Latest Weather Observations and please check the disclaimer before using these data.